Weather at Don Torcuato Airport [CLOSED]

Public forecast

Using degrees Celsius for public forecast. Weather courtesy of forecast.io.

Closest aviation weather report (METAR) to Don Torcuato Airport

Closest report is San Fernando Airport, 2.8 nm (5.2 km) NNE.

2024/05/30 22:00 (retrieved 47 minutes ago)

SADF 302200Z 08002KT 9999 SCT047 13/10 Q1023

Closest aviation forecast (TAF) to Don Torcuato Airport

Closest forecast is San Fernando Airport, 2.8 nm (5.2 km) NNE.

2024/05/30 18:03 (retrieved 5 hours ago)

TAF TAF SADF 301700Z 3018/3118 32005KT 9999 BKN045 TX17/3118Z TN10/3110Z BECMG 3020/3022 07005KT BECMG 3101/3103 CAVOK PROB30 TEMPO 3106/3112 5000 BR BKN010 BECMG 3113/3115 02010KT 9999 SCT040